sensor_id;sensor_type;location;lat;lon;timestamp;temperature;humidity
79140;HTU21D;68546;59.142;37.948;2023-07-20T00:00:57;16.62;83.38
79140;HTU21D;68546;59.142;37.948;2023-07-20T00:03:25;16.59;83.55
79140;HTU21D;68546;59.142;37.948;2023-07-20T00:05:54;16.57;83.72
79140;HTU21D;68546;59.142;37.948;2023-07-20T00:08:22;16.54;83.84
79140;HTU21D;68546;59.142;37.948;2023-07-20T00:10:49;16.51;83.98
79140;HTU21D;68546;59.142;37.948;2023-07-20T00:13:15;16.47;84.09
79140;HTU21D;68546;59.142;37.948;2023-07-20T00:15:44;16.45;84.30
79140;HTU21D;68546;59.142;37.948;2023-07-20T00:18:11;16.43;84.53
79140;HTU21D;68546;59.142;37.948;2023-07-20T00:20:37;16.44;84.72
79140;HTU21D;68546;59.142;37.948;2023-07-20T00:23:05;16.44;84.87
79140;HTU21D;68546;59.142;37.948;2023-07-20T00:25:34;16.45;85.13
79140;HTU21D;68546;59.142;37.948;2023-07-20T00:28:02;16.45;85.13
79140;HTU21D;68546;59.142;37.948;2023-07-20T00:30:28;16.46;85.11
79140;HTU21D;68546;59.142;37.948;2023-07-20T00:32:55;16.46;85.19
79140;HTU21D;68546;59.142;37.948;2023-07-20T00:35:22;16.46;85.14
79140;HTU21D;68546;59.142;37.948;2023-07-20T00:37:50;16.48;85.08
79140;HTU21D;68546;59.142;37.948;2023-07-20T00:40:17;16.47;85.06
79140;HTU21D;68546;59.142;37.948;2023-07-20T00:42:44;16.48;85.09
79140;HTU21D;68546;59.142;37.948;2023-07-20T00:45:11;16.47;84.97
79140;HTU21D;68546;59.142;37.948;2023-07-20T00:47:37;16.47;84.86
79140;HTU21D;68546;59.142;37.948;2023-07-20T00:50:05;16.47;84.89
79140;HTU21D;68546;59.142;37.948;2023-07-20T00:52:32;16.45;84.90
79140;HTU21D;68546;59.142;37.948;2023-07-20T00:55:00;16.44;85.02
79140;HTU21D;68546;59.142;37.948;2023-07-20T00:57:28;16.44;85.02
79140;HTU21D;68546;59.142;37.948;2023-07-20T00:59:54;16.43;85.06
79140;HTU21D;68546;59.142;37.948;2023-07-20T01:02:22;16.44;85.24
79140;HTU21D;68546;59.142;37.948;2023-07-20T01:04:48;16.43;85.32
79140;HTU21D;68546;59.142;37.948;2023-07-20T01:07:27;16.42;85.29
79140;HTU21D;68546;59.142;37.948;2023-07-20T01:10:16;16.43;85.35
79140;HTU21D;68546;59.142;37.948;2023-07-20T01:12:52;16.42;85.48
79140;HTU21D;68546;59.142;37.948;2023-07-20T01:15:19;16.43;85.45
79140;HTU21D;68546;59.142;37.948;2023-07-20T01:17:45;16.41;85.61
79140;HTU21D;68546;59.142;37.948;2023-07-20T01:20:14;16.42;85.71
79140;HTU21D;68546;59.142;37.948;2023-07-20T01:31:34;16.40;85.80
79140;HTU21D;68546;59.142;37.948;2023-07-20T01:34:03;16.37;85.87
79140;HTU21D;68546;59.142;37.948;2023-07-20T01:36:37;16.36;86.09
79140;HTU21D;68546;59.142;37.948;2023-07-20T01:39:05;16.34;86.20
79140;HTU21D;68546;59.142;37.948;2023-07-20T01:41:33;16.33;86.49
79140;HTU21D;68546;59.142;37.948;2023-07-20T01:43:59;16.31;86.69
79140;HTU21D;68546;59.142;37.948;2023-07-20T01:46:27;16.30;87.05
79140;HTU21D;68546;59.142;37.948;2023-07-20T01:48:55;16.30;87.28
79140;HTU21D;68546;59.142;37.948;2023-07-20T01:51:21;16.31;87.54
79140;HTU21D;68546;59.142;37.948;2023-07-20T01:53:48;16.31;87.80
79140;HTU21D;68546;59.142;37.948;2023-07-20T01:56:15;16.31;87.85
79140;HTU21D;68546;59.142;37.948;2023-07-20T01:58:41;16.32;88.14
79140;HTU21D;68546;59.142;37.948;2023-07-20T02:01:08;16.32;88.42
79140;HTU21D;68546;59.142;37.948;2023-07-20T02:03:34;16.32;88.52
79140;HTU21D;68546;59.142;37.948;2023-07-20T02:06:01;16.34;88.80
79140;HTU21D;68546;59.142;37.948;2023-07-20T02:08:28;16.33;88.78
79140;HTU21D;68546;59.142;37.948;2023-07-20T02:10:57;16.33;89.13
79140;HTU21D;68546;59.142;37.948;2023-07-20T02:13:23;16.32;89.41
79140;HTU21D;68546;59.142;37.948;2023-07-20T02:15:50;16.30;89.52
79140;HTU21D;68546;59.142;37.948;2023-07-20T02:18:17;16.30;89.73
79140;HTU21D;68546;59.142;37.948;2023-07-20T02:20:43;16.29;89.99
79140;HTU21D;68546;59.142;37.948;2023-07-20T02:23:11;16.29;90.09
79140;HTU21D;68546;59.142;37.948;2023-07-20T02:25:37;16.28;90.24
79140;HTU21D;68546;59.142;37.948;2023-07-20T02:28:07;16.27;90.47
79140;HTU21D;68546;59.142;37.948;2023-07-20T02:30:38;16.27;90.64
79140;HTU21D;68546;59.142;37.948;2023-07-20T02:33:05;16.27;90.72
79140;HTU21D;68546;59.142;37.948;2023-07-20T02:35:32;16.26;90.98
79140;HTU21D;68546;59.142;37.948;2023-07-20T02:38:00;16.25;91.15
79140;HTU21D;68546;59.142;37.948;2023-07-20T02:40:26;16.26;91.27
79140;HTU21D;68546;59.142;37.948;2023-07-20T02:42:55;16.25;91.40
79140;HTU21D;68546;59.142;37.948;2023-07-20T02:45:21;16.24;91.40
79140;HTU21D;68546;59.142;37.948;2023-07-20T02:47:48;16.22;91.59
79140;HTU21D;68546;59.142;37.948;2023-07-20T02:50:14;16.21;91.50
79140;HTU21D;68546;59.142;37.948;2023-07-20T02:52:41;16.20;91.55
79140;HTU21D;68546;59.142;37.948;2023-07-20T02:55:08;16.20;91.60
79140;HTU21D;68546;59.142;37.948;2023-07-20T02:57:34;16.20;91.80
79140;HTU21D;68546;59.142;37.948;2023-07-20T03:00:03;16.18;91.98
79140;HTU21D;68546;59.142;37.948;2023-07-20T03:02:31;16.19;92.11
79140;HTU21D;68546;59.142;37.948;2023-07-20T03:05:00;16.19;92.32
79140;HTU21D;68546;59.142;37.948;2023-07-20T03:07:28;16.18;92.31
79140;HTU21D;68546;59.142;37.948;2023-07-20T03:09:55;16.17;92.40
79140;HTU21D;68546;59.142;37.948;2023-07-20T03:12:22;16.16;92.55
79140;HTU21D;68546;59.142;37.948;2023-07-20T03:14:50;16.17;92.76
79140;HTU21D;68546;59.142;37.948;2023-07-20T03:17:17;16.15;92.92
79140;HTU21D;68546;59.142;37.948;2023-07-20T03:19:45;16.17;93.25
79140;HTU21D;68546;59.142;37.948;2023-07-20T03:22:13;16.16;93.62
79140;HTU21D;68546;59.142;37.948;2023-07-20T03:24:40;16.16;93.88
79140;HTU21D;68546;59.142;37.948;2023-07-20T03:27:06;16.18;94.11
79140;HTU21D;68546;59.142;37.948;2023-07-20T03:29:33;16.18;94.49
79140;HTU21D;68546;59.142;37.948;2023-07-20T03:31:59;16.19;94.82
79140;HTU21D;68546;59.142;37.948;2023-07-20T03:34:26;16.22;94.97
79140;HTU21D;68546;59.142;37.948;2023-07-20T03:36:54;16.24;95.17
79140;HTU21D;68546;59.142;37.948;2023-07-20T03:39:22;16.27;95.39
79140;HTU21D;68546;59.142;37.948;2023-07-20T03:41:51;16.28;95.56
79140;HTU21D;68546;59.142;37.948;2023-07-20T03:44:18;16.31;95.65
79140;HTU21D;68546;59.142;37.948;2023-07-20T03:46:44;16.31;95.94
79140;HTU21D;68546;59.142;37.948;2023-07-20T03:49:11;16.36;96.04
79140;HTU21D;68546;59.142;37.948;2023-07-20T03:51:37;16.36;96.12
79140;HTU21D;68546;59.142;37.948;2023-07-20T03:54:05;16.40;96.09
79140;HTU21D;68546;59.142;37.948;2023-07-20T03:56:32;16.42;96.16
79140;HTU21D;68546;59.142;37.948;2023-07-20T03:59:03;16.47;96.55
79140;HTU21D;68546;59.142;37.948;2023-07-20T04:01:30;16.50;96.62
79140;HTU21D;68546;59.142;37.948;2023-07-20T04:04:07;16.56;96.94
79140;HTU21D;68546;59.142;37.948;2023-07-20T04:06:34;16.63;97.38
79140;HTU21D;68546;59.142;37.948;2023-07-20T04:09:00;16.70;97.74
79140;HTU21D;68546;59.142;37.948;2023-07-20T04:11:27;16.78;97.61
79140;HTU21D;68546;59.142;37.948;2023-07-20T04:13:54;16.86;97.34
79140;HTU21D;68546;59.142;37.948;2023-07-20T04:16:24;16.92;96.96
79140;HTU21D;68546;59.142;37.948;2023-07-20T04:18:55;16.99;97.01
79140;HTU21D;68546;59.142;37.948;2023-07-20T04:21:22;17.04;96.49
79140;HTU21D;68546;59.142;37.948;2023-07-20T04:23:50;17.07;96.01
79140;HTU21D;68546;59.142;37.948;2023-07-20T04:26:19;17.13;95.76
79140;HTU21D;68546;59.142;37.948;2023-07-20T04:28:45;17.14;95.25
79140;HTU21D;68546;59.142;37.948;2023-07-20T04:31:20;17.17;94.77
79140;HTU21D;68546;59.142;37.948;2023-07-20T04:33:47;17.19;94.21
79140;HTU21D;68546;59.142;37.948;2023-07-20T04:36:14;17.20;94.20
79140;HTU21D;68546;59.142;37.948;2023-07-20T04:38:42;17.22;93.72
79140;HTU21D;68546;59.142;37.948;2023-07-20T04:41:17;17.20;93.45
79140;HTU21D;68546;59.142;37.948;2023-07-20T04:43:47;17.20;93.43
79140;HTU21D;68546;59.142;37.948;2023-07-20T04:46:17;17.23;93.78
79140;HTU21D;68546;59.142;37.948;2023-07-20T04:48:46;17.23;92.59
79140;HTU21D;68546;59.142;37.948;2023-07-20T04:51:14;17.23;91.93
79140;HTU21D;68546;59.142;37.948;2023-07-20T04:53:41;17.20;91.73
79140;HTU21D;68546;59.142;37.948;2023-07-20T04:56:10;17.20;91.67
79140;HTU21D;68546;59.142;37.948;2023-07-20T04:58:38;17.20;91.66
79140;HTU21D;68546;59.142;37.948;2023-07-20T05:01:05;17.18;91.64
79140;HTU21D;68546;59.142;37.948;2023-07-20T05:03:32;17.17;92.14
79140;HTU21D;68546;59.142;37.948;2023-07-20T05:05:59;17.19;91.66
79140;HTU21D;68546;59.142;37.948;2023-07-20T05:08:26;17.20;91.70
79140;HTU21D;68546;59.142;37.948;2023-07-20T05:10:55;17.21;91.60
79140;HTU21D;68546;59.142;37.948;2023-07-20T05:13:23;17.23;91.38
79140;HTU21D;68546;59.142;37.948;2023-07-20T05:15:53;17.28;91.58
79140;HTU21D;68546;59.142;37.948;2023-07-20T05:18:21;17.30;91.69
79140;HTU21D;68546;59.142;37.948;2023-07-20T05:20:51;17.34;91.22
79140;HTU21D;68546;59.142;37.948;2023-07-20T05:23:18;17.36;90.64
79140;HTU21D;68546;59.142;37.948;2023-07-20T05:25:47;17.39;90.63
79140;HTU21D;68546;59.142;37.948;2023-07-20T05:28:19;17.44;90.98
79140;HTU21D;68546;59.142;37.948;2023-07-20T05:30:46;17.46;90.72
79140;HTU21D;68546;59.142;37.948;2023-07-20T05:33:12;17.50;90.26
79140;HTU21D;68546;59.142;37.948;2023-07-20T05:35:40;17.51;89.73
79140;HTU21D;68546;59.142;37.948;2023-07-20T05:38:06;17.54;89.59
79140;HTU21D;68546;59.142;37.948;2023-07-20T05:40:33;17.55;89.46
79140;HTU21D;68546;59.142;37.948;2023-07-20T05:43:01;17.58;89.23
79140;HTU21D;68546;59.142;37.948;2023-07-20T05:45:27;17.62;88.93
79140;HTU21D;68546;59.142;37.948;2023-07-20T05:47:54;17.62;88.67
79140;HTU21D;68546;59.142;37.948;2023-07-20T05:50:20;17.65;88.51
79140;HTU21D;68546;59.142;37.948;2023-07-20T05:52:47;17.66;87.89
79140;HTU21D;68546;59.142;37.948;2023-07-20T05:55:14;17.67;87.30
79140;HTU21D;68546;59.142;37.948;2023-07-20T05:57:41;17.69;87.44
79140;HTU21D;68546;59.142;37.948;2023-07-20T06:00:10;17.70;87.44
79140;HTU21D;68546;59.142;37.948;2023-07-20T06:02:39;17.73;87.09
79140;HTU21D;68546;59.142;37.948;2023-07-20T06:05:07;17.75;86.90
79140;HTU21D;68546;59.142;37.948;2023-07-20T06:07:36;17.77;86.83
79140;HTU21D;68546;59.142;37.948;2023-07-20T06:10:04;17.80;86.51
79140;HTU21D;68546;59.142;37.948;2023-07-20T06:12:32;17.81;85.80
79140;HTU21D;68546;59.142;37.948;2023-07-20T06:15:04;17.83;86.04
79140;HTU21D;68546;59.142;37.948;2023-07-20T06:17:33;17.87;85.86
79140;HTU21D;68546;59.142;37.948;2023-07-20T06:19:59;17.90;85.55
79140;HTU21D;68546;59.142;37.948;2023-07-20T06:22:27;17.93;84.97
79140;HTU21D;68546;59.142;37.948;2023-07-20T06:24:53;17.93;84.58
79140;HTU21D;68546;59.142;37.948;2023-07-20T06:27:22;17.96;84.44
79140;HTU21D;68546;59.142;37.948;2023-07-20T06:29:49;17.98;85.16
79140;HTU21D;68546;59.142;37.948;2023-07-20T06:32:15;18.05;84.97
79140;HTU21D;68546;59.142;37.948;2023-07-20T06:34:42;18.11;85.01
79140;HTU21D;68546;59.142;37.948;2023-07-20T06:37:08;18.14;84.36
79140;HTU21D;68546;59.142;37.948;2023-07-20T06:39:36;18.20;84.05
79140;HTU21D;68546;59.142;37.948;2023-07-20T06:42:04;18.24;83.69
79140;HTU21D;68546;59.142;37.948;2023-07-20T06:44:31;18.27;83.77
79140;HTU21D;68546;59.142;37.948;2023-07-20T06:46:57;18.35;84.11
79140;HTU21D;68546;59.142;37.948;2023-07-20T06:49:27;18.42;83.78
79140;HTU21D;68546;59.142;37.948;2023-07-20T06:51:54;18.47;82.81
79140;HTU21D;68546;59.142;37.948;2023-07-20T06:54:21;18.52;81.30
79140;HTU21D;68546;59.142;37.948;2023-07-20T06:56:47;18.51;80.76
79140;HTU21D;68546;59.142;37.948;2023-07-20T06:59:14;18.52;79.76
79140;HTU21D;68546;59.142;37.948;2023-07-20T07:01:40;18.50;79.28
79140;HTU21D;68546;59.142;37.948;2023-07-20T07:04:09;18.48;78.63
79140;HTU21D;68546;59.142;37.948;2023-07-20T07:06:36;18.44;78.88
79140;HTU21D;68546;59.142;37.948;2023-07-20T07:09:03;18.42;79.02
79140;HTU21D;68546;59.142;37.948;2023-07-20T07:11:30;18.43;79.73
79140;HTU21D;68546;59.142;37.948;2023-07-20T07:13:56;18.46;79.34
79140;HTU21D;68546;59.142;37.948;2023-07-20T07:16:23;18.47;78.30
79140;HTU21D;68546;59.142;37.948;2023-07-20T07:18:50;18.49;78.03
79140;HTU21D;68546;59.142;37.948;2023-07-20T07:21:17;18.51;78.71
79140;HTU21D;68546;59.142;37.948;2023-07-20T07:23:45;18.55;79.03
79140;HTU21D;68546;59.142;37.948;2023-07-20T07:26:13;18.61;79.26
79140;HTU21D;68546;59.142;37.948;2023-07-20T07:28:41;18.69;79.55
79140;HTU21D;68546;59.142;37.948;2023-07-20T07:31:07;18.79;79.36
79140;HTU21D;68546;59.142;37.948;2023-07-20T07:33:35;18.85;79.78
79140;HTU21D;68546;59.142;37.948;2023-07-20T07:36:03;18.98;80.01
79140;HTU21D;68546;59.142;37.948;2023-07-20T07:38:30;19.08;80.24
79140;HTU21D;68546;59.142;37.948;2023-07-20T07:40:59;19.16;79.62
79140;HTU21D;68546;59.142;37.948;2023-07-20T07:43:28;19.22;78.66
79140;HTU21D;68546;59.142;37.948;2023-07-20T07:45:55;19.29;78.24
79140;HTU21D;68546;59.142;37.948;2023-07-20T07:48:24;19.31;77.36
79140;HTU21D;68546;59.142;37.948;2023-07-20T07:50:53;19.35;77.28
79140;HTU21D;68546;59.142;37.948;2023-07-20T07:53:20;19.40;77.45
79140;HTU21D;68546;59.142;37.948;2023-07-20T07:55:50;19.43;77.24
79140;HTU21D;68546;59.142;37.948;2023-07-20T07:58:19;19.46;77.23
79140;HTU21D;68546;59.142;37.948;2023-07-20T08:00:46;19.53;76.74
79140;HTU21D;68546;59.142;37.948;2023-07-20T08:03:14;19.58;76.68
79140;HTU21D;68546;59.142;37.948;2023-07-20T08:05:42;19.65;76.74
79140;HTU21D;68546;59.142;37.948;2023-07-20T08:08:08;19.68;76.32
79140;HTU21D;68546;59.142;37.948;2023-07-20T08:10:35;19.73;75.78
79140;HTU21D;68546;59.142;37.948;2023-07-20T08:13:02;19.77;75.53
79140;HTU21D;68546;59.142;37.948;2023-07-20T08:15:28;19.83;75.57
79140;HTU21D;68546;59.142;37.948;2023-07-20T08:17:56;19.87;75.45
79140;HTU21D;68546;59.142;37.948;2023-07-20T08:20:22;19.94;74.83
79140;HTU21D;68546;59.142;37.948;2023-07-20T08:22:54;20.00;72.99
79140;HTU21D;68546;59.142;37.948;2023-07-20T08:25:21;20.04;73.46
79140;HTU21D;68546;59.142;37.948;2023-07-20T08:27:47;20.11;73.32
79140;HTU21D;68546;59.142;37.948;2023-07-20T08:30:14;20.18;72.91
79140;HTU21D;68546;59.142;37.948;2023-07-20T08:32:41;20.21;71.25
79140;HTU21D;68546;59.142;37.948;2023-07-20T08:35:07;20.25;70.46
79140;HTU21D;68546;59.142;37.948;2023-07-20T08:37:34;20.26;69.93
79140;HTU21D;68546;59.142;37.948;2023-07-20T08:40:02;20.30;69.94
79140;HTU21D;68546;59.142;37.948;2023-07-20T08:42:32;20.34;69.42
79140;HTU21D;68546;59.142;37.948;2023-07-20T08:45:01;20.43;69.68
79140;HTU21D;68546;59.142;37.948;2023-07-20T08:47:29;20.53;69.52
79140;HTU21D;68546;59.142;37.948;2023-07-20T08:49:59;20.62;69.95
79140;HTU21D;68546;59.142;37.948;2023-07-20T08:52:27;20.77;69.23
79140;HTU21D;68546;59.142;37.948;2023-07-20T08:54:55;20.87;67.84
79140;HTU21D;68546;59.142;37.948;2023-07-20T08:57:22;20.93;67.07
79140;HTU21D;68546;59.142;37.948;2023-07-20T08:59:50;20.99;66.83
79140;HTU21D;68546;59.142;37.948;2023-07-20T09:02:22;21.04;66.98
79140;HTU21D;68546;59.142;37.948;2023-07-20T09:04:51;21.10;65.79
79140;HTU21D;68546;59.142;37.948;2023-07-20T09:07:19;21.09;65.30
79140;HTU21D;68546;59.142;37.948;2023-07-20T09:09:47;21.11;65.42
79140;HTU21D;68546;59.142;37.948;2023-07-20T09:12:15;21.15;65.07
79140;HTU21D;68546;59.142;37.948;2023-07-20T09:14:44;21.19;65.51
79140;HTU21D;68546;59.142;37.948;2023-07-20T09:17:14;21.27;65.43
79140;HTU21D;68546;59.142;37.948;2023-07-20T09:19:50;21.34;64.86
79140;HTU21D;68546;59.142;37.948;2023-07-20T09:22:17;21.38;64.69
79140;HTU21D;68546;59.142;37.948;2023-07-20T09:24:44;21.42;63.88
79140;HTU21D;68546;59.142;37.948;2023-07-20T09:27:11;21.46;64.41
79140;HTU21D;68546;59.142;37.948;2023-07-20T09:29:56;21.57;64.28
79140;HTU21D;68546;59.142;37.948;2023-07-20T09:32:23;21.62;63.64
79140;HTU21D;68546;59.142;37.948;2023-07-20T09:34:50;21.69;63.30
79140;HTU21D;68546;59.142;37.948;2023-07-20T09:37:21;21.78;63.18
79140;HTU21D;68546;59.142;37.948;2023-07-20T09:39:52;21.84;62.07
79140;HTU21D;68546;59.142;37.948;2023-07-20T09:42:22;21.89;62.12
79140;HTU21D;68546;59.142;37.948;2023-07-20T09:44:50;21.92;60.28
79140;HTU21D;68546;59.142;37.948;2023-07-20T09:47:24;21.96;60.57
79140;HTU21D;68546;59.142;37.948;2023-07-20T09:49:58;22.02;60.62
79140;HTU21D;68546;59.142;37.948;2023-07-20T09:52:31;22.09;60.41
79140;HTU21D;68546;59.142;37.948;2023-07-20T09:54:58;22.17;60.26
79140;HTU21D;68546;59.142;37.948;2023-07-20T09:57:26;22.25;59.01
79140;HTU21D;68546;59.142;37.948;2023-07-20T09:59:54;22.35;58.44
79140;HTU21D;68546;59.142;37.948;2023-07-20T10:02:25;22.46;58.51
79140;HTU21D;68546;59.142;37.948;2023-07-20T10:04:54;22.56;57.56
79140;HTU21D;68546;59.142;37.948;2023-07-20T10:07:22;22.67;56.49
79140;HTU21D;68546;59.142;37.948;2023-07-20T10:09:51;22.70;55.11
79140;HTU21D;68546;59.142;37.948;2023-07-20T10:12:19;22.73;54.42
79140;HTU21D;68546;59.142;37.948;2023-07-20T10:14:54;22.70;54.89
79140;HTU21D;68546;59.142;37.948;2023-07-20T10:17:25;22.68;56.02
79140;HTU21D;68546;59.142;37.948;2023-07-20T10:19:56;22.69;56.43
79140;HTU21D;68546;59.142;37.948;2023-07-20T10:22:29;22.67;56.64
79140;HTU21D;68546;59.142;37.948;2023-07-20T10:24:58;22.65;57.06
79140;HTU21D;68546;59.142;37.948;2023-07-20T10:27:26;22.65;57.34
79140;HTU21D;68546;59.142;37.948;2023-07-20T10:29:53;22.67;57.20
79140;HTU21D;68546;59.142;37.948;2023-07-20T10:32:22;22.73;56.82
79140;HTU21D;68546;59.142;37.948;2023-07-20T10:34:52;22.77;56.43
79140;HTU21D;68546;59.142;37.948;2023-07-20T10:40:40;22.85;55.90
79140;HTU21D;68546;59.142;37.948;2023-07-20T10:43:08;22.85;55.57
79140;HTU21D;68546;59.142;37.948;2023-07-20T10:48:06;22.84;55.76
79140;HTU21D;68546;59.142;37.948;2023-07-20T10:50:33;22.82;56.09
79140;HTU21D;68546;59.142;37.948;2023-07-20T10:53:11;22.85;56.10
79140;HTU21D;68546;59.142;37.948;2023-07-20T10:55:39;22.82;55.95
79140;HTU21D;68546;59.142;37.948;2023-07-20T10:58:11;22.77;56.21
79140;HTU21D;68546;59.142;37.948;2023-07-20T11:01:03;22.66;56.34
79140;HTU21D;68546;59.142;37.948;2023-07-20T11:03:37;22.56;56.67
79140;HTU21D;68546;59.142;37.948;2023-07-20T11:09:11;22.38;57.24
79140;HTU21D;68546;59.142;37.948;2023-07-20T11:11:42;22.31;57.64
79140;HTU21D;68546;59.142;37.948;2023-07-20T11:14:11;22.24;57.70
79140;HTU21D;68546;59.142;37.948;2023-07-20T11:16:47;22.13;58.09
79140;HTU21D;68546;59.142;37.948;2023-07-20T11:19:16;22.07;58.45
79140;HTU21D;68546;59.142;37.948;2023-07-20T11:21:47;22.01;58.87
79140;HTU21D;68546;59.142;37.948;2023-07-20T11:24:15;21.95;58.79
79140;HTU21D;68546;59.142;37.948;2023-07-20T11:26:51;21.88;58.84
